Time;durP1;ratioP1;P1;durP2;ratioP2;P2;SDS_P1;SDS_P2;PMS_P1;PMS_P2;Temp;Humidity;BMP_temperature;BMP_pressure;BME280_temperature;BME280_humidity;BME280_pressure;Samples;Min_cycle;Max_cycle;Signal;HPM_P1;HPM_P2
2023/03/25 00:00:52;;;;;;;1.03;0.50;;;7.80;99.90;;;;;;5098784;28;20505;-54
2023/03/25 00:03:18;;;;;;;0.80;0.50;;;7.60;99.90;;;;;;5099543;28;20496;-45
2023/03/25 00:05:44;;;;;;;3.63;1.03;;;7.60;99.90;;;;;;5100557;28;20693;-42
2023/03/25 00:08:09;;;;;;;1.07;0.47;;;7.60;99.90;;;;;;5099356;28;20498;-43
2023/03/25 00:10:35;;;;;;;2.53;0.90;;;7.60;99.90;;;;;;5098240;28;20237;-48
2023/03/25 00:13:04;;;;;;;2.03;0.90;;;7.50;99.90;;;;;;5096491;28;20192;-43
2023/03/25 00:15:32;;;;;;;2.20;0.80;;;7.50;99.90;;;;;;5096146;28;20253;-43
2023/03/25 00:17:59;;;;;;;1.07;0.40;;;7.50;99.90;;;;;;5097756;28;21557;-43
2023/03/25 00:20:26;;;;;;;4.33;1.00;;;7.50;99.90;;;;;;5098906;28;20685;-44
2023/03/25 00:22:52;;;;;;;1.00;0.50;;;7.50;99.90;;;;;;5099436;28;20458;-43
2023/03/25 00:25:19;;;;;;;1.40;1.00;;;7.50;73.90;;;;;;5099068;28;20697;-42
2023/03/25 00:27:46;;;;;;;2.10;0.77;;;7.50;67.60;;;;;;5096859;28;20477;-44
2023/03/25 00:30:13;;;;;;;1.90;0.93;;;7.50;97.80;;;;;;5098885;28;20429;-43
2023/03/25 00:32:39;;;;;;;2.93;0.93;;;7.50;41.60;;;;;;5099293;28;20483;-44
2023/03/25 00:35:07;;;;;;;3.07;0.90;;;7.50;15.60;;;;;;5098666;28;20457;-44
2023/03/25 00:37:33;;;;;;;2.67;1.07;;;7.50;9.60;;;;;;5099155;28;20188;-44
2023/03/25 00:39:58;;;;;;;3.07;1.40;;;7.50;17.50;;;;;;5099367;28;20407;-44
2023/03/25 00:42:27;;;;;;;3.17;1.00;;;7.50;1.00;;;;;;5099362;28;20465;-43
2023/03/25 00:44:53;;;;;;;3.37;0.90;;;7.60;1.00;;;;;;5096530;28;20176;-42
2023/03/25 00:47:20;;;;;;;3.67;1.67;;;7.60;1.00;;;;;;5099235;28;20850;-44
2023/03/25 00:49:47;;;;;;;1.47;1.00;;;7.50;1.00;;;;;;5099636;28;20418;-42
2023/03/25 00:52:14;;;;;;;4.73;1.00;;;7.60;1.00;;;;;;5100282;28;20426;-43
2023/03/25 00:54:40;;;;;;;4.07;1.27;;;7.60;99.90;;;;;;5099379;28;20870;-44
2023/03/25 00:57:05;;;;;;;3.60;1.27;;;7.60;99.90;;;;;;5099687;28;20422;-43
2023/03/25 00:59:31;;;;;;;2.50;1.00;;;7.60;1.00;;;;;;5099535;28;20456;-47
2023/03/25 01:01:57;;;;;;;2.50;1.20;;;7.50;1.00;;;;;;5098736;28;20185;-45
2023/03/25 01:04:23;;;;;;;3.47;0.90;;;7.50;1.00;;;;;;5098930;28;20535;-44
2023/03/25 01:06:50;;;;;;;3.13;1.03;;;7.50;1.00;;;;;;5097707;28;20419;-44
2023/03/25 01:09:18;;;;;;;2.37;1.27;;;7.50;1.00;;;;;;5098169;28;20180;-48
2023/03/25 01:11:45;;;;;;;3.87;1.80;;;7.50;1.00;;;;;;5097502;28;20467;-43
2023/03/25 01:14:17;;;;;;;2.63;1.00;;;7.40;1.00;;;;;;5099196;28;20425;-43
2023/03/25 01:16:43;;;;;;;4.50;1.10;;;7.40;1.00;;;;;;5099121;28;20494;-44
2023/03/25 01:19:09;;;;;;;2.73;1.07;;;7.40;1.00;;;;;;5099005;28;20450;-46
2023/03/25 01:21:35;;;;;;;2.47;1.03;;;7.40;1.00;;;;;;5099044;28;20712;-42
2023/03/25 01:24:02;;;;;;;1.70;0.93;;;7.40;1.00;;;;;;5097306;28;20470;-43
2023/03/25 01:26:28;;;;;;;2.07;1.13;;;7.70;1.90;;;;;;5097360;28;20462;-41
2023/03/25 01:28:54;;;;;;;2.60;0.80;;;7.90;99.90;;;;;;5097464;28;20904;-43
2023/03/25 01:31:21;;;;;;;2.93;1.20;;;8.20;1.00;;;;;;5097626;28;20242;-42
2023/03/25 01:33:47;;;;;;;1.27;0.80;;;8.30;1.00;;;;;;5096590;28;20200;-43
2023/03/25 01:36:13;;;;;;;3.00;0.97;;;8.20;1.00;;;;;;5096637;28;20567;-43
2023/03/25 01:38:39;;;;;;;4.23;0.83;;;8.00;1.00;;;;;;5098254;28;20527;-42
2023/03/25 01:41:05;;;;;;;2.60;0.70;;;7.90;99.90;;;;;;5098467;28;20528;-47
2023/03/25 01:43:32;;;;;;;7.80;1.10;;;7.70;99.90;;;;;;5097779;28;20748;-42
2023/03/25 01:45:58;;;;;;;3.40;1.00;;;7.60;99.90;;;;;;5099602;28;20422;-45
2023/03/25 01:48:36;;;;;;;1.40;0.77;;;7.50;99.90;;;;;;5099743;28;20446;-43
2023/03/25 01:51:16;;;;;;;2.20;1.60;;;7.50;1.00;;;;;;5099101;28;20415;-42
2023/03/25 01:53:49;;;;;;;1.87;1.00;;;7.50;1.00;;;;;;5099514;28;20856;-43
2023/03/25 01:56:17;;;;;;;1.80;0.77;;;7.40;1.00;;;;;;5098987;28;20765;-43
2023/03/25 01:58:43;;;;;;;2.50;1.37;;;7.40;1.00;;;;;;5099548;28;20429;-43
2023/03/25 02:01:12;;;;;;;2.60;0.80;;;7.30;30.00;;;;;;5096726;28;20777;-42
2023/03/25 02:03:44;;;;;;;9.70;1.37;;;7.30;90.30;;;;;;5096566;28;20529;-44
2023/03/25 02:06:15;;;;;;;4.10;1.20;;;7.20;99.90;;;;;;5096359;28;20785;-42
2023/03/25 02:08:41;;;;;;;2.00;1.20;;;7.10;99.90;;;;;;5097403;28;20458;-42
2023/03/25 02:11:08;;;;;;;3.37;1.23;;;7.10;99.90;;;;;;5097426;28;20461;-44
2023/03/25 02:13:38;;;;;;;3.53;1.03;;;7.00;99.90;;;;;;5080109;28;20180;-42
2023/03/25 02:16:29;;;;;;;2.80;1.53;;;7.00;99.90;;;;;;5096780;28;20529;-44
2023/03/25 02:18:55;;;;;;;3.07;1.90;;;7.00;99.90;;;;;;5095767;28;20425;-43
2023/03/25 02:21:49;;;;;;;5.57;2.10;;;6.90;99.90;;;;;;5095821;28;20774;-42
2023/03/25 02:24:52;;;;;;;2.17;1.20;;;6.90;99.90;;;;;;5097426;28;20980;-43
2023/03/25 02:27:50;;;;;;;5.53;1.10;;;7.00;99.90;;;;;;5095846;28;20784;-42
2023/03/25 02:33:43;;;;;;;6.60;1.13;;;7.00;99.90;;;;;;5096573;28;20429;-45
2023/03/25 02:36:14;;;;;;;2.47;1.07;;;7.10;99.90;;;;;;5097944;28;20933;-42
2023/03/25 02:38:52;;;;;;;3.10;1.10;;;7.10;99.90;;;;;;5097696;28;20422;-45
2023/03/25 02:41:34;;;;;;;2.50;0.97;;;7.10;99.90;;;;;;5096199;28;20418;-44
2023/03/25 02:44:06;;;;;;;2.30;0.97;;;7.10;99.90;;;;;;5095908;28;20466;-46
2023/03/25 02:46:33;;;;;;;4.90;0.90;;;7.10;99.90;;;;;;5096128;28;20414;-43
2023/03/25 02:49:05;;;;;;;1.60;0.90;;;7.10;99.90;;;;;;5095857;28;20793;-42
2023/03/25 02:51:35;;;;;;;3.93;1.00;;;7.00;99.90;;;;;;5097028;28;20427;-43
2023/03/25 02:54:09;;;;;;;3.17;1.00;;;7.00;82.20;;;;;;5097234;28;20426;-41
2023/03/25 02:56:37;;;;;;;2.23;0.70;;;7.00;1.00;;;;;;5097186;28;20433;-42
2023/03/25 02:59:03;;;;;;;1.20;0.80;;;6.90;1.00;;;;;;5095647;28;20423;-43
2023/03/25 03:01:29;;;;;;;4.53;2.03;;;6.80;1.00;;;;;;5097475;28;20491;-44
2023/03/25 03:03:55;;;;;;;2.00;0.87;;;6.80;99.90;;;;;;5097884;28;20482;-43
2023/03/25 03:06:22;;;;;;;2.20;0.90;;;6.60;99.90;;;;;;5096664;28;20199;-43
2023/03/25 03:08:48;;;;;;;1.30;0.63;;;6.60;99.90;;;;;;5095255;28;20422;-46
2023/03/25 03:11:22;;;;;;;2.57;0.60;;;6.60;99.90;;;;;;5096242;28;20411;-45
2023/03/25 03:14:10;;;;;;;2.40;0.73;;;6.70;99.90;;;;;;5095845;28;20298;-44
2023/03/25 03:16:49;;;;;;;2.57;1.07;;;6.60;99.90;;;;;;5095600;28;20722;-43
2023/03/25 03:19:50;;;;;;;1.70;0.57;;;6.60;99.90;;;;;;5096925;28;20604;-43
2023/03/25 03:22:39;;;;;;;2.50;1.10;;;6.60;99.90;;;;;;5097534;28;20472;-43
2023/03/25 03:25:20;;;;;;;2.40;0.40;;;6.60;99.90;;;;;;5083594;28;20761;-42
2023/03/25 03:27:46;;;;;;;2.50;0.40;;;6.50;99.90;;;;;;5096942;28;20462;-43
2023/03/25 03:30:21;;;;;;;1.00;0.50;;;6.50;99.90;;;;;;5097403;28;20429;-42
2023/03/25 03:32:48;;;;;;;3.83;0.50;;;6.50;99.90;;;;;;5078832;28;20192;-42
2023/03/25 03:35:42;;;;;;;1.37;0.40;;;6.30;1.00;;;;;;5095849;28;20792;-44
2023/03/25 03:38:11;;;;;;;1.20;0.63;;;6.40;1.00;;;;;;5078476;28;20471;-43
2023/03/25 03:40:39;;;;;;;0.97;0.33;;;6.40;1.00;;;;;;5095358;28;20437;-44
2023/03/25 03:43:21;;;;;;;1.00;0.40;;;6.30;1.00;;;;;;5093416;28;20535;-44
2023/03/25 03:45:50;;;;;;;1.77;0.40;;;6.30;1.00;;;;;;5094466;28;20572;-43
2023/03/25 03:48:45;;;;;;;0.97;0.47;;;6.20;1.00;;;;;;5096027;28;20519;-42
2023/03/25 03:51:17;;;;;;;1.47;0.70;;;6.20;1.00;;;;;;5083842;28;20729;-42
2023/03/25 03:53:51;;;;;;;1.20;0.40;;;6.20;1.00;;;;;;5090976;28;20410;-42
2023/03/25 03:56:21;;;;;;;2.80;0.60;;;6.20;1.00;;;;;;5094467;28;20414;-45
2023/03/25 03:58:49;;;;;;;0.87;0.50;;;6.20;17.00;;;;;;5075552;28;20697;-43
2023/03/25 04:01:46;;;;;;;2.40;0.63;;;6.20;34.90;;;;;;5093740;28;20426;-44
2023/03/25 04:04:19;;;;;;;1.50;0.53;;;6.30;33.90;;;;;;5090723;28;20852;-44
2023/03/25 04:06:46;;;;;;;1.93;0.40;;;6.20;26.20;;;;;;5091617;28;20437;-42
2023/03/25 04:09:42;;;;;;;1.57;0.60;;;6.20;91.70;;;;;;5093077;28;20419;-44
2023/03/25 04:12:11;;;;;;;1.93;0.50;;;6.20;99.90;;;;;;5096132;28;20839;-42
2023/03/25 04:14:37;;;;;;;1.73;0.50;;;6.20;99.60;;;;;;5093834;28;20410;-42
2023/03/25 04:17:06;;;;;;;1.43;0.40;;;6.20;99.90;;;;;;5096238;28;20426;-43
2023/03/25 04:19:32;;;;;;;1.47;0.53;;;6.20;99.90;;;;;;5095661;28;20521;-44
2023/03/25 04:22:02;;;;;;;0.90;0.40;;;6.30;99.90;;;;;;5094985;28;20700;-44
2023/03/25 04:24:30;;;;;;;1.93;0.60;;;6.30;99.90;;;;;;5095831;28;20521;-43
2023/03/25 04:26:58;;;;;;;3.93;0.90;;;6.30;99.90;;;;;;5096001;28;20478;-42
2023/03/25 04:29:24;;;;;;;3.13;0.77;;;6.30;99.90;;;;;;5095279;28;20471;-44
2023/03/25 04:31:53;;;;;;;1.43;0.50;;;6.40;53.90;;;;;;5093941;28;20431;-43
2023/03/25 04:34:19;;;;;;;3.43;0.70;;;6.40;51.20;;;;;;5095675;28;20430;-42
2023/03/25 04:36:45;;;;;;;2.03;0.70;;;6.30;93.20;;;;;;5096919;28;20406;-41
2023/03/25 04:39:11;;;;;;;1.90;0.80;;;6.30;99.90;;;;;;5095936;28;20164;-44
2023/03/25 04:41:38;;;;;;;1.80;0.60;;;6.30;99.90;;;;;;5095843;28;20409;-46
2023/03/25 04:44:06;;;;;;;1.73;0.63;;;6.20;99.90;;;;;;5099359;28;20485;-47
2023/03/25 04:46:33;;;;;;;3.93;1.20;;;6.20;99.90;;;;;;5100264;28;20437;-42
2023/03/25 04:48:59;;;;;;;2.33;1.10;;;6.20;99.90;;;;;;5100260;28;20501;-44
2023/03/25 04:51:24;;;;;;;3.07;1.30;;;6.10;99.90;;;;;;5099622;28;20684;-45
2023/03/25 04:53:50;;;;;;;2.63;1.30;;;6.10;99.90;;;;;;5098266;28;20422;-43
2023/03/25 04:56:17;;;;;;;3.70;1.57;;;6.10;99.90;;;;;;5099701;28;20245;-42
2023/03/25 04:58:44;;;;;;;2.17;1.00;;;6.10;77.80;;;;;;5099864;28;20177;-42
2023/03/25 05:01:30;;;;;;;1.83;1.20;;;6.10;10.60;;;;;;5097573;28;20489;-43
2023/03/25 05:04:03;;;;;;;3.43;1.27;;;6.20;1.00;;;;;;5097978;28;20473;-43
2023/03/25 05:06:50;;;;;;;3.43;1.20;;;6.20;1.00;;;;;;5098922;28;20410;-43
2023/03/25 05:09:18;;;;;;;2.13;1.30;;;6.30;1.00;;;;;;5098447;28;20418;-43
2023/03/25 05:11:45;;;;;;;4.20;1.07;;;6.20;1.00;;;;;;5098944;28;20406;-43
2023/03/25 05:14:12;;;;;;;2.23;0.93;;;6.30;1.00;;;;;;5099309;28;20766;-42
2023/03/25 05:16:38;;;;;;;3.50;1.17;;;6.30;1.00;;;;;;5099421;28;20414;-44
2023/03/25 05:19:05;;;;;;;2.47;0.60;;;6.30;1.00;;;;;;5099211;28;20792;-46
2023/03/25 05:21:32;;;;;;;2.20;1.10;;;6.30;1.00;;;;;;5097802;28;20636;-44
2023/03/25 05:24:00;;;;;;;2.30;1.53;;;6.40;1.00;;;;;;5097052;28;20501;-44
2023/03/25 05:26:33;;;;;;;7.57;1.60;;;6.40;1.00;;;;;;5095785;28;20894;-43
2023/03/25 05:29:07;;;;;;;5.47;1.00;;;6.40;99.90;;;;;;5094493;28;20827;-45
2023/03/25 05:31:33;;;;;;;5.50;1.40;;;6.40;99.90;;;;;;5094452;28;20498;-44
2023/03/25 05:33:59;;;;;;;3.77;0.93;;;6.40;99.90;;;;;;5096450;28;20431;-43
2023/03/25 05:36:24;;;;;;;4.30;1.00;;;6.50;99.90;;;;;;5096713;28;20422;-47
2023/03/25 05:38:53;;;;;;;3.50;1.33;;;6.50;99.90;;;;;;5096434;28;20176;-46
2023/03/25 05:41:21;;;;;;;5.50;1.40;;;6.40;1.00;;;;;;5095887;28;20191;-43
2023/03/25 05:43:49;;;;;;;2.50;0.80;;;6.40;1.00;;;;;;5095369;28;20466;-44
2023/03/25 05:46:16;;;;;;;6.07;1.47;;;6.50;1.00;;;;;;5096523;28;20517;-44
2023/03/25 05:48:43;;;;;;;1.40;0.83;;;6.60;1.00;;;;;;5097950;28;20407;-42
2023/03/25 05:51:15;;;;;;;4.17;1.57;;;6.60;1.00;;;;;;5097928;28;20479;-44
2023/03/25 05:53:48;;;;;;;3.90;1.43;;;6.60;1.00;;;;;;5097574;28;20473;-43
2023/03/25 05:56:16;;;;;;;3.50;1.13;;;6.60;1.00;;;;;;5098222;28;20473;-44
2023/03/25 05:58:42;;;;;;;3.63;1.37;;;6.60;1.00;;;;;;5097731;28;20413;-46
2023/03/25 06:01:09;;;;;;;9.37;1.40;;;6.70;1.00;;;;;;5095849;28;20705;-44
2023/03/25 06:03:35;;;;;;;4.20;1.30;;;6.70;1.00;;;;;;5095624;28;20465;-42
2023/03/25 06:06:13;;;;;;;2.53;1.00;;;6.70;3.30;;;;;;5096469;28;20415;-45
2023/03/25 06:08:49;;;;;;;3.90;1.37;;;6.70;6.80;;;;;;5095705;28;20478;-44
2023/03/25 06:11:16;;;;;;;3.30;1.20;;;6.70;1.00;;;;;;5095866;28;20778;-47
2023/03/25 06:13:48;;;;;;;2.07;0.90;;;6.80;1.00;;;;;;5095082;28;20425;-42
2023/03/25 06:16:17;;;;;;;4.10;1.20;;;6.70;1.00;;;;;;5095172;28;20508;-44
2023/03/25 06:18:49;;;;;;;1.70;0.83;;;6.80;1.00;;;;;;5096146;28;20418;-43
2023/03/25 06:21:17;;;;;;;1.90;1.10;;;6.90;99.90;;;;;;5096208;28;20411;-46
2023/03/25 06:23:43;;;;;;;2.63;1.33;;;6.90;99.90;;;;;;5095996;28;20462;-46
2023/03/25 06:26:08;;;;;;;5.30;1.57;;;6.80;99.90;;;;;;5096094;28;20553;-44
2023/03/25 06:28:34;;;;;;;3.47;1.30;;;6.90;99.90;;;;;;5096718;28;20263;-45
2023/03/25 06:31:02;;;;;;;4.50;1.30;;;7.00;99.90;;;;;;5093449;28;20172;-44
2023/03/25 06:33:27;;;;;;;2.93;1.13;;;7.10;99.90;;;;;;5094941;28;20172;-44
2023/03/25 06:35:53;;;;;;;3.20;1.30;;;7.10;99.90;;;;;;5095142;28;20762;-44
2023/03/25 06:38:20;;;;;;;3.20;1.10;;;7.20;99.90;;;;;;5095155;28;20171;-43
2023/03/25 06:40:46;;;;;;;3.30;1.10;;;7.30;99.90;;;;;;5094828;28;20466;-46
2023/03/25 06:43:12;;;;;;;4.47;1.97;;;7.30;99.90;;;;;;5093827;28;20481;-45
2023/03/25 06:45:37;;;;;;;4.17;1.90;;;7.30;99.90;;;;;;5094169;28;20419;-44
2023/03/25 06:48:04;;;;;;;2.23;1.10;;;7.40;99.90;;;;;;5095272;28;20172;-43
2023/03/25 06:50:30;;;;;;;4.53;0.93;;;7.40;99.90;;;;;;5094942;28;20169;-45
2023/03/25 06:52:56;;;;;;;4.67;1.00;;;7.60;28.90;;;;;;5093181;28;20452;-43
2023/03/25 06:55:22;;;;;;;3.00;1.67;;;7.60;2.20;;;;;;5094598;28;20433;-45
2023/03/25 06:57:47;;;;;;;3.00;1.30;;;7.50;38.50;;;;;;5094985;28;20551;-43
2023/03/25 07:00:13;;;;;;;2.57;1.23;;;7.50;99.90;;;;;;5094330;28;20177;-44
2023/03/25 07:02:39;;;;;;;4.07;1.80;;;7.60;99.90;;;;;;5094864;28;20287;-42
2023/03/25 07:05:06;;;;;;;3.87;1.87;;;7.80;26.40;;;;;;5094986;28;20422;-45
2023/03/25 07:07:31;;;;;;;2.80;1.00;;;7.90;1.00;;;;;;5095910;28;20840;-43
2023/03/25 07:09:57;;;;;;;1.83;1.20;;;8.00;1.00;;;;;;5096147;28;20423;-44
2023/03/25 07:12:23;;;;;;;1.57;1.20;;;8.10;99.90;;;;;;5094324;28;20173;-45
2023/03/25 07:14:53;;;;;;;3.13;1.23;;;8.10;99.90;;;;;;5094658;28;20443;-43
2023/03/25 07:17:18;;;;;;;3.23;1.20;;;8.00;99.90;;;;;;5093250;28;20493;-43
2023/03/25 07:19:44;;;;;;;3.53;0.97;;;7.80;1.00;;;;;;5093089;28;20862;-43
2023/03/25 07:22:10;;;;;;;1.73;0.90;;;7.80;99.90;;;;;;5091232;28;20819;-43
2023/03/25 07:24:35;;;;;;;2.10;1.60;;;7.80;99.90;;;;;;5092257;28;20173;-42
2023/03/25 07:27:01;;;;;;;1.90;1.00;;;7.80;1.00;;;;;;5091635;28;20518;-43
2023/03/25 07:29:26;;;;;;;2.70;1.13;;;7.80;1.00;;;;;;5092724;28;20192;-43
2023/03/25 07:31:52;;;;;;;1.93;0.90;;;7.90;8.60;;;;;;5093405;28;20176;-45
2023/03/25 07:34:18;;;;;;;1.30;0.60;;;7.90;1.00;;;;;;5092967;28;20180;-43
2023/03/25 07:36:43;;;;;;;3.70;0.93;;;7.90;99.90;;;;;;5092522;28;20196;-45
2023/03/25 07:39:09;;;;;;;2.97;0.60;;;7.80;1.00;;;;;;5094718;28;20188;-42
2023/03/25 07:41:35;;;;;;;1.17;0.47;;;7.80;1.00;;;;;;5094171;28;20518;-44
2023/03/25 07:44:01;;;;;;;3.60;1.10;;;8.00;1.00;;;;;;5092106;28;20204;-45
2023/03/25 07:46:26;;;;;;;2.43;1.10;;;8.10;99.90;;;;;;5094916;28;20277;-43
2023/03/25 07:48:52;;;;;;;2.87;0.80;;;8.30;99.90;;;;;;5094334;28;20176;-46
2023/03/25 07:51:17;;;;;;;2.20;0.93;;;8.40;57.60;;;;;;5092841;28;20186;-43
2023/03/25 07:53:45;;;;;;;4.40;1.20;;;8.60;99.90;;;;;;5093573;28;20264;-46
2023/03/25 07:56:11;;;;;;;4.13;0.90;;;8.60;49.70;;;;;;5092995;28;20180;-44
2023/03/25 07:58:37;;;;;;;2.90;0.80;;;8.80;1.00;;;;;;5093845;28;20702;-42
2023/03/25 08:01:02;;;;;;;2.70;0.90;;;8.80;99.90;;;;;;5093622;28;20419;-43
2023/03/25 08:03:32;;;;;;;2.67;0.80;;;9.00;99.90;;;;;;5075874;28;20207;-44
2023/03/25 08:06:00;;;;;;;2.40;0.73;;;9.10;3.00;;;;;;5094113;28;20828;-42
2023/03/25 08:08:28;;;;;;;1.97;0.67;;;9.20;99.90;;;;;;5094906;28;20840;-42
2023/03/25 08:10:55;;;;;;;1.70;0.60;;;9.20;1.00;;;;;;5094931;28;20430;-43
2023/03/25 08:13:21;;;;;;;1.73;0.50;;;9.10;99.90;;;;;;5096089;28;20530;-42
2023/03/25 08:15:47;;;;;;;1.10;0.60;;;9.10;99.90;;;;;;5096773;28;20526;-43
2023/03/25 08:18:12;;;;;;;0.90;0.50;;;9.20;99.90;;;;;;5097890;28;20426;-45
2023/03/25 08:20:38;;;;;;;2.13;0.90;;;9.20;1.00;;;;;;5100694;28;20518;-45
2023/03/25 08:23:09;;;;;;;1.90;0.63;;;8.90;1.00;;;;;;5099103;28;20582;-45
2023/03/25 08:25:37;;;;;;;1.47;0.60;;;8.40;99.90;;;;;;5099361;28;20414;-46
2023/03/25 08:28:05;;;;;;;2.83;0.97;;;8.10;99.90;;;;;;5097603;28;20423;-44
2023/03/25 08:30:37;;;;;;;1.67;0.70;;;8.00;48.40;;;;;;5097486;28;20516;-45
2023/03/25 08:33:08;;;;;;;2.20;0.60;;;7.90;95.20;;;;;;5080645;28;20426;-42
2023/03/25 08:35:35;;;;;;;1.50;0.67;;;7.70;99.90;;;;;;5096713;28;20864;-43
2023/03/25 08:38:04;;;;;;;3.03;0.80;;;7.60;1.00;;;;;;5095959;28;21030;-43
2023/03/25 08:40:31;;;;;;;2.03;0.80;;;7.50;58.40;;;;;;5096288;28;20835;-43
2023/03/25 08:42:57;;;;;;;1.80;0.80;;;7.60;99.90;;;;;;5097679;28;20469;-42
2023/03/25 08:45:22;;;;;;;1.20;0.43;;;7.70;99.90;;;;;;5095586;28;20735;-44
2023/03/25 08:47:48;;;;;;;3.70;1.40;;;7.80;99.90;;;;;;5098606;28;20422;-43
2023/03/25 08:50:14;;;;;;;1.67;1.10;;;8.00;99.90;;;;;;5097923;28;20219;-46
2023/03/25 08:52:40;;;;;;;1.37;1.07;;;8.20;99.90;;;;;;5098870;28;20570;-44
2023/03/25 08:55:07;;;;;;;2.17;0.83;;;8.00;94.50;;;;;;5097938;28;20434;-46
2023/03/25 08:57:36;;;;;;;1.40;0.83;;;8.00;99.90;;;;;;5097590;28;20422;-42
2023/03/25 09:00:12;;;;;;;2.30;0.77;;;7.90;99.90;;;;;;5096848;28;20856;-44
2023/03/25 09:02:37;;;;;;;2.13;0.83;;;7.80;99.90;;;;;;5098602;28;20526;-43
2023/03/25 09:05:03;;;;;;;1.30;0.67;;;7.80;99.90;;;;;;5095833;28;20430;-45
2023/03/25 09:07:29;;;;;;;2.23;0.90;;;7.60;99.90;;;;;;5096937;28;20231;-44
2023/03/25 09:09:55;;;;;;;1.37;0.80;;;7.50;99.90;;;;;;5094661;28;20422;-44
2023/03/25 09:12:20;;;;;;;1.47;0.70;;;7.50;99.90;;;;;;5097553;28;20415;-45
2023/03/25 09:14:46;;;;;;;3.10;2.20;;;7.30;99.90;;;;;;5095992;28;20271;-47
2023/03/25 09:17:12;;;;;;;8.87;1.83;;;7.50;1.00;;;;;;5096047;28;20180;-43
2023/03/25 09:19:37;;;;;;;3.17;1.10;;;7.90;1.00;;;;;;5097599;28;20183;-44
2023/03/25 09:22:03;;;;;;;1.17;0.70;;;8.30;1.00;;;;;;5096659;28;20181;-44
2023/03/25 09:24:32;;;;;;;4.03;1.20;;;8.50;99.90;;;;;;5095096;28;20216;-44
2023/03/25 09:26:59;;;;;;;2.50;1.00;;;8.60;99.90;;;;;;5095730;28;20481;-44
2023/03/25 09:29:25;;;;;;;2.30;1.10;;;9.00;99.90;;;;;;5093429;28;20441;-45
2023/03/25 09:31:50;;;;;;;3.30;1.23;;;9.10;1.00;;;;;;5095328;28;20433;-44
2023/03/25 09:34:16;;;;;;;7.00;1.13;;;9.00;1.00;;;;;;5094286;28;20179;-44
2023/03/25 09:36:41;;;;;;;1.47;0.80;;;8.90;1.00;;;;;;5096327;28;20199;-44
2023/03/25 09:39:07;;;;;;;1.20;0.80;;;8.80;1.00;;;;;;5097373;28;20177;-43
2023/03/25 09:42:18;;;;;;;2.47;1.10;;;8.60;1.00;;;;;;5095806;28;20284;-43
2023/03/25 09:45:06;;;;;;;1.63;0.90;;;8.60;1.00;;;;;;5064951;28;20230;-46
2023/03/25 09:47:33;;;;;;;3.53;1.03;;;8.70;1.00;;;;;;5094951;28;20433;-43
2023/03/25 09:50:04;;;;;;;1.50;1.00;;;8.80;1.00;;;;;;5096338;28;20530;-44
2023/03/25 09:52:38;;;;;;;2.77;1.07;;;8.90;1.00;;;;;;5094147;28;20411;-44
2023/03/25 09:55:10;;;;;;;3.57;1.30;;;9.00;1.00;;;;;;5095769;28;20461;-44
2023/03/25 09:57:45;;;;;;;2.77;1.00;;;9.20;1.00;;;;;;5095106;28;20411;-44
2023/03/25 10:00:17;;;;;;;5.13;1.10;;;9.10;99.90;;;;;;5094709;28;20978;-44
2023/03/25 10:02:56;;;;;;;2.00;0.67;;;9.40;1.00;;;;;;5094521;28;20779;-44
2023/03/25 10:05:34;;;;;;;1.70;0.97;;;9.50;87.10;;;;;;5095429;28;20484;-43
2023/03/25 10:08:30;;;;;;;1.90;0.60;;;9.50;1.00;;;;;;5095093;28;20872;-43
2023/03/25 10:11:08;;;;;;;1.20;0.80;;;9.50;21.50;;;;;;5077063;28;20496;-45
2023/03/25 10:13:42;;;;;;;4.20;1.17;;;9.50;99.90;;;;;;5092734;28;20751;-43
2023/03/25 10:16:30;;;;;;;3.13;1.17;;;9.60;99.90;;;;;;5096819;28;20430;-43
2023/03/25 10:19:13;;;;;;;1.87;0.87;;;9.90;1.00;;;;;;5096385;28;20725;-42
2023/03/25 10:21:52;;;;;;;1.03;0.67;;;10.20;1.00;;;;;;5096049;28;20432;-43
2023/03/25 10:24:40;;;;;;;1.10;0.80;;;10.40;99.90;;;;;;5096185;28;20864;-43
2023/03/25 10:27:18;;;;;;;1.33;0.50;;;10.50;23.90;;;;;;5095114;28;20466;-47
2023/03/25 10:29:57;;;;;;;2.80;0.70;;;11.00;1.00;;;;;;5094536;28;20522;-43
2023/03/25 10:32:45;;;;;;;1.07;0.40;;;11.40;18.10;;;;;;5094082;28;20847;-43
2023/03/25 10:35:43;;;;;;;2.30;0.67;;;11.40;99.90;;;;;;5095050;28;20437;-45
2023/03/25 10:38:19;;;;;;;1.73;0.80;;;11.50;75.80;;;;;;5094965;28;20430;-42
2023/03/25 10:40:52;;;;;;;1.10;0.50;;;11.70;1.00;;;;;;5093752;28;20520;-44
2023/03/25 10:43:30;;;;;;;2.03;0.90;;;11.00;99.90;;;;;;5093234;28;20457;-42
2023/03/25 10:46:00;;;;;;;3.83;0.70;;;11.00;99.90;;;;;;5095397;28;20430;-45
2023/03/25 10:48:28;;;;;;;1.90;0.60;;;10.70;1.00;;;;;;5092874;28;20460;-43
2023/03/25 10:51:14;;;;;;;1.43;0.60;;;11.00;1.00;;;;;;5094086;28;20445;-44
2023/03/25 10:53:41;;;;;;;1.57;0.70;;;11.30;1.00;;;;;;5094942;28;20437;-43
2023/03/25 10:56:12;;;;;;;1.00;0.37;;;11.20;24.30;;;;;;5093302;28;20862;-44
2023/03/25 10:58:39;;;;;;;2.00;0.80;;;11.20;1.00;;;;;;5094941;28;20775;-44
2023/03/25 11:01:13;;;;;;;2.67;0.50;;;10.80;99.90;;;;;;5094745;28;20437;-42
2023/03/25 11:03:41;;;;;;;2.60;0.77;;;10.70;92.20;;;;;;5093593;28;20457;-44
2023/03/25 11:06:11;;;;;;;1.73;0.57;;;10.60;99.90;;;;;;5075765;28;20453;-45
2023/03/25 11:08:38;;;;;;;3.17;0.83;;;10.60;1.00;;;;;;5091748;28;20425;-42
2023/03/25 11:11:04;;;;;;;2.33;0.77;;;10.70;99.90;;;;;;5093366;28;20465;-45
2023/03/25 11:13:30;;;;;;;3.10;0.83;;;11.00;1.00;;;;;;5090323;28;20431;-45
2023/03/25 11:16:02;;;;;;;1.53;0.90;;;11.60;1.00;;;;;;5093504;28;20524;-45
2023/03/25 11:18:37;;;;;;;5.60;0.93;;;12.10;99.90;;;;;;5092100;28;20418;-43
2023/03/25 11:21:11;;;;;;;2.50;0.63;;;12.40;99.90;;;;;;5093092;28;20453;-43
2023/03/25 11:23:43;;;;;;;1.53;0.50;;;12.90;99.90;;;;;;5093441;28;20964;-44
2023/03/25 11:26:19;;;;;;;2.13;0.60;;;12.80;6.80;;;;;;5091961;28;20791;-43
2023/03/25 11:28:55;;;;;;;1.30;0.53;;;12.80;1.00;;;;;;5091454;28;20433;-44
2023/03/25 11:31:26;;;;;;;1.37;0.60;;;12.40;1.30;;;;;;5093340;28;20532;-45
2023/03/25 11:34:09;;;;;;;3.50;0.83;;;11.70;37.00;;;;;;5095427;28;20422;-43
2023/03/25 11:36:46;;;;;;;1.53;0.50;;;11.90;49.20;;;;;;5096094;28;20434;-44
2023/03/25 11:39:38;;;;;;;2.43;0.70;;;12.00;48.90;;;;;;5095622;28;20933;-43
2023/03/25 11:42:16;;;;;;;1.30;0.60;;;12.10;76.80;;;;;;5095668;28;20682;-44
2023/03/25 11:44:51;;;;;;;1.80;0.67;;;12.40;90.80;;;;;;5095017;28;20458;-44
2023/03/25 11:47:31;;;;;;;1.93;0.70;;;12.90;41.80;;;;;;5093621;28;20967;-45
2023/03/25 11:49:57;;;;;;;2.33;0.70;;;12.50;98.20;;;;;;5094137;28;20426;-45
2023/03/25 11:52:34;;;;;;;1.40;0.77;;;13.20;99.90;;;;;;5096839;28;20509;-44
2023/03/25 11:55:00;;;;;;;1.90;0.77;;;13.40;1.00;;;;;;5094902;28;20901;-43
2023/03/25 11:57:29;;;;;;;1.60;0.70;;;13.30;1.00;;;;;;5094806;28;20513;-43
2023/03/25 12:00:25;;;;;;;4.20;0.60;;;13.10;1.00;;;;;;5094559;28;20706;-44
2023/03/25 12:03:08;;;;;;;2.10;0.83;;;13.40;1.00;;;;;;5096074;28;20466;-45
2023/03/25 12:05:33;;;;;;;2.53;0.93;;;13.00;1.00;;;;;;5078412;28;20527;-44
2023/03/25 12:08:14;;;;;;;3.07;1.20;;;12.80;1.00;;;;;;5096111;28;20803;-46
2023/03/25 12:10:59;;;;;;;4.83;0.70;;;12.90;1.00;;;;;;5097989;28;20302;-46
2023/03/25 12:13:31;;;;;;;1.23;0.80;;;12.90;1.00;;;;;;5096136;28;20947;-44
2023/03/25 12:16:22;;;;;;;1.67;0.70;;;13.30;1.00;;;;;;5097718;28;20442;-43
2023/03/25 12:19:13;;;;;;;2.00;0.70;;;13.20;1.00;;;;;;5096773;28;20704;-44
2023/03/25 12:21:55;;;;;;;1.40;0.80;;;12.80;1.00;;;;;;5097719;28;20437;-45
2023/03/25 12:24:41;;;;;;;2.87;0.80;;;13.10;1.00;;;;;;5095176;28;20565;-45
2023/03/25 12:27:31;;;;;;;2.00;0.70;;;13.50;1.00;;;;;;5096318;28;20505;-45
2023/03/25 12:30:34;;;;;;;3.00;0.57;;;14.20;1.00;;;;;;5097906;28;20824;-45
2023/03/25 12:33:25;;;;;;;2.80;1.07;;;13.70;1.00;;;;;;5096180;28;20426;-44
2023/03/25 12:36:16;;;;;;;2.03;0.87;;;13.20;1.00;;;;;;5097809;28;20422;-46
2023/03/25 12:38:52;;;;;;;1.20;0.70;;;12.40;1.00;;;;;;5096492;28;20417;-43
2023/03/25 12:41:24;;;;;;;2.40;0.90;;;11.70;1.00;;;;;;5096851;28;20499;-45
2023/03/25 12:44:02;;;;;;;2.30;1.60;;;11.00;1.00;;;;;;5096061;28;20473;-45
2023/03/25 12:46:56;;;;;;;1.50;0.60;;;10.60;52.40;;;;;;5096663;28;20426;-45
2023/03/25 12:49:25;;;;;;;2.10;0.60;;;10.40;1.00;;;;;;5097188;28;20425;-57
2023/03/25 12:52:03;;;;;;;1.93;1.00;;;10.30;99.90;;;;;;5099030;28;20487;-44
2023/03/25 12:54:51;;;;;;;1.97;1.00;;;10.20;1.00;;;;;;5096169;28;20414;-44
2023/03/25 12:57:50;;;;;;;2.10;0.60;;;10.10;1.00;;;;;;5097106;28;20422;-43
2023/03/25 13:00:53;;;;;;;2.87;0.80;;;9.90;1.00;;;;;;5096114;28;20507;-44
2023/03/25 13:03:49;;;;;;;1.70;0.87;;;10.60;1.00;;;;;;5094984;28;20465;-46
2023/03/25 13:06:30;;;;;;;1.60;0.90;;;11.60;99.90;;;;;;5060671;28;20431;-43
2023/03/25 13:09:09;;;;;;;2.43;1.10;;;12.30;99.90;;;;;;5096184;28;20688;-45
2023/03/25 13:11:41;;;;;;;3.77;1.10;;;12.30;99.90;;;;;;5078386;28;20452;-44
2023/03/25 13:14:15;;;;;;;1.37;0.53;;;11.90;42.80;;;;;;5095153;28;20410;-43
2023/03/25 13:16:42;;;;;;;2.37;0.60;;;11.40;16.70;;;;;;5094943;28;20906;-45
2023/03/25 13:19:19;;;;;;;1.97;0.47;;;11.20;1.00;;;;;;5093800;28;20756;-42
2023/03/25 13:21:51;;;;;;;1.43;0.80;;;11.00;5.40;;;;;;5095458;28;20430;-43
2023/03/25 13:24:23;;;;;;;2.27;0.80;;;10.30;1.00;;;;;;5093429;28;20476;-43
2023/03/25 13:26:51;;;;;;;1.20;0.60;;;9.70;1.00;;;;;;5092344;28;20753;-42